sensor_id;sensor_type;location;lat;lon;timestamp;P1;durP1;ratioP1;P2;durP2;ratioP2
27305;SDS011;14792;50.886;6.468;2024-02-14T00:01:26;4.72;;;1.10;;
27305;SDS011;14792;50.886;6.468;2024-02-14T00:04:27;1.40;;;0.75;;
27305;SDS011;14792;50.886;6.468;2024-02-14T00:07:29;2.47;;;0.82;;
27305;SDS011;14792;50.886;6.468;2024-02-14T00:10:31;0.60;;;0.60;;
27305;SDS011;14792;50.886;6.468;2024-02-14T00:13:32;1.52;;;0.95;;
27305;SDS011;14792;50.886;6.468;2024-02-14T00:16:34;3.08;;;0.85;;
27305;SDS011;14792;50.886;6.468;2024-02-14T00:19:36;1.92;;;0.70;;
27305;SDS011;14792;50.886;6.468;2024-02-14T00:22:38;1.98;;;0.68;;
27305;SDS011;14792;50.886;6.468;2024-02-14T00:25:39;6.47;;;0.95;;
27305;SDS011;14792;50.886;6.468;2024-02-14T00:28:40;1.77;;;0.53;;
27305;SDS011;14792;50.886;6.468;2024-02-14T00:31:44;2.58;;;0.90;;
27305;SDS011;14792;50.886;6.468;2024-02-14T00:34:46;0.68;;;0.57;;
27305;SDS011;14792;50.886;6.468;2024-02-14T00:37:48;2.92;;;1.00;;
27305;SDS011;14792;50.886;6.468;2024-02-14T00:40:49;4.00;;;0.80;;
27305;SDS011;14792;50.886;6.468;2024-02-14T00:43:51;1.47;;;0.72;;
27305;SDS011;14792;50.886;6.468;2024-02-14T00:46:56;2.35;;;0.65;;
27305;SDS011;14792;50.886;6.468;2024-02-14T00:49:57;1.40;;;0.85;;
27305;SDS011;14792;50.886;6.468;2024-02-14T00:52:58;3.33;;;1.00;;
27305;SDS011;14792;50.886;6.468;2024-02-14T00:56:00;4.22;;;0.72;;
27305;SDS011;14792;50.886;6.468;2024-02-14T00:59:02;2.17;;;0.72;;
27305;SDS011;14792;50.886;6.468;2024-02-14T01:02:03;2.35;;;0.80;;
27305;SDS011;14792;50.886;6.468;2024-02-14T01:05:05;2.25;;;0.80;;
27305;SDS011;14792;50.886;6.468;2024-02-14T01:08:06;4.25;;;0.70;;
27305;SDS011;14792;50.886;6.468;2024-02-14T01:11:08;1.17;;;0.80;;
27305;SDS011;14792;50.886;6.468;2024-02-14T01:14:09;2.98;;;1.00;;
27305;SDS011;14792;50.886;6.468;2024-02-14T01:17:11;2.05;;;0.57;;
27305;SDS011;14792;50.886;6.468;2024-02-14T01:20:13;1.57;;;0.80;;
27305;SDS011;14792;50.886;6.468;2024-02-14T01:23:14;3.22;;;0.93;;
27305;SDS011;14792;50.886;6.468;2024-02-14T01:26:16;1.47;;;0.60;;
27305;SDS011;14792;50.886;6.468;2024-02-14T01:29:17;2.50;;;0.95;;
27305;SDS011;14792;50.886;6.468;2024-02-14T01:32:19;2.02;;;0.85;;
27305;SDS011;14792;50.886;6.468;2024-02-14T01:35:21;2.50;;;0.80;;
27305;SDS011;14792;50.886;6.468;2024-02-14T01:38:22;2.90;;;0.90;;
27305;SDS011;14792;50.886;6.468;2024-02-14T01:41:24;2.35;;;0.70;;
27305;SDS011;14792;50.886;6.468;2024-02-14T01:44:25;1.10;;;0.78;;
27305;SDS011;14792;50.886;6.468;2024-02-14T01:47:27;2.70;;;0.78;;
27305;SDS011;14792;50.886;6.468;2024-02-14T01:50:28;2.75;;;0.72;;
27305;SDS011;14792;50.886;6.468;2024-02-14T01:53:30;2.83;;;0.95;;
27305;SDS011;14792;50.886;6.468;2024-02-14T01:56:32;1.57;;;0.60;;
27305;SDS011;14792;50.886;6.468;2024-02-14T01:59:36;1.70;;;0.80;;
27305;SDS011;14792;50.886;6.468;2024-02-14T02:02:37;2.75;;;0.85;;
27305;SDS011;14792;50.886;6.468;2024-02-14T02:05:39;3.30;;;0.80;;
27305;SDS011;14792;50.886;6.468;2024-02-14T02:08:42;0.90;;;0.60;;
27305;SDS011;14792;50.886;6.468;2024-02-14T02:11:49;2.25;;;0.60;;
27305;SDS011;14792;50.886;6.468;2024-02-14T02:14:50;0.88;;;0.60;;
27305;SDS011;14792;50.886;6.468;2024-02-14T02:17:52;1.12;;;0.82;;
27305;SDS011;14792;50.886;6.468;2024-02-14T02:20:53;1.20;;;0.68;;
27305;SDS011;14792;50.886;6.468;2024-02-14T02:23:55;5.03;;;0.70;;
27305;SDS011;14792;50.886;6.468;2024-02-14T02:26:56;1.70;;;0.70;;
27305;SDS011;14792;50.886;6.468;2024-02-14T02:29:58;1.80;;;0.85;;
27305;SDS011;14792;50.886;6.468;2024-02-14T02:32:59;1.52;;;0.68;;
27305;SDS011;14792;50.886;6.468;2024-02-14T02:36:01;1.92;;;0.90;;
27305;SDS011;14792;50.886;6.468;2024-02-14T02:39:03;2.72;;;0.70;;
27305;SDS011;14792;50.886;6.468;2024-02-14T02:42:04;2.90;;;1.00;;
27305;SDS011;14792;50.886;6.468;2024-02-14T02:45:06;1.27;;;0.82;;
27305;SDS011;14792;50.886;6.468;2024-02-14T02:48:07;1.80;;;1.02;;
27305;SDS011;14792;50.886;6.468;2024-02-14T02:51:09;3.08;;;1.17;;
27305;SDS011;14792;50.886;6.468;2024-02-14T02:54:11;5.12;;;1.72;;
27305;SDS011;14792;50.886;6.468;2024-02-14T02:57:12;4.65;;;1.75;;
27305;SDS011;14792;50.886;6.468;2024-02-14T03:00:14;2.12;;;1.27;;
27305;SDS011;14792;50.886;6.468;2024-02-14T03:03:15;2.27;;;1.20;;
27305;SDS011;14792;50.886;6.468;2024-02-14T03:06:17;6.28;;;1.20;;
27305;SDS011;14792;50.886;6.468;2024-02-14T03:09:18;2.85;;;1.32;;
27305;SDS011;14792;50.886;6.468;2024-02-14T03:12:20;2.85;;;1.15;;
27305;SDS011;14792;50.886;6.468;2024-02-14T03:15:22;5.65;;;1.37;;
27305;SDS011;14792;50.886;6.468;2024-02-14T03:18:23;5.75;;;1.30;;
27305;SDS011;14792;50.886;6.468;2024-02-14T03:21:25;2.83;;;1.40;;
27305;SDS011;14792;50.886;6.468;2024-02-14T03:24:26;2.60;;;1.50;;
27305;SDS011;14792;50.886;6.468;2024-02-14T03:27:28;2.12;;;1.47;;
27305;SDS011;14792;50.886;6.468;2024-02-14T03:30:30;3.08;;;1.45;;
27305;SDS011;14792;50.886;6.468;2024-02-14T03:33:31;2.58;;;1.80;;
27305;SDS011;14792;50.886;6.468;2024-02-14T03:36:33;3.60;;;1.60;;
27305;SDS011;14792;50.886;6.468;2024-02-14T03:39:34;2.55;;;1.52;;
27305;SDS011;14792;50.886;6.468;2024-02-14T03:42:36;2.27;;;1.42;;
27305;SDS011;14792;50.886;6.468;2024-02-14T03:45:37;3.30;;;1.72;;
27305;SDS011;14792;50.886;6.468;2024-02-14T03:48:39;2.35;;;1.47;;
27305;SDS011;14792;50.886;6.468;2024-02-14T03:51:41;8.78;;;1.95;;
27305;SDS011;14792;50.886;6.468;2024-02-14T03:54:45;4.87;;;1.80;;
27305;SDS011;14792;50.886;6.468;2024-02-14T03:57:47;6.60;;;1.80;;
27305;SDS011;14792;50.886;6.468;2024-02-14T04:00:51;3.58;;;1.70;;
27305;SDS011;14792;50.886;6.468;2024-02-14T04:03:53;2.67;;;1.30;;
27305;SDS011;14792;50.886;6.468;2024-02-14T04:06:54;3.62;;;1.60;;
27305;SDS011;14792;50.886;6.468;2024-02-14T04:09:56;5.53;;;1.60;;
27305;SDS011;14792;50.886;6.468;2024-02-14T04:12:57;5.47;;;1.45;;
27305;SDS011;14792;50.886;6.468;2024-02-14T04:15:59;2.27;;;1.10;;
27305;SDS011;14792;50.886;6.468;2024-02-14T04:19:01;3.22;;;1.30;;
27305;SDS011;14792;50.886;6.468;2024-02-14T04:22:02;3.87;;;1.55;;
27305;SDS011;14792;50.886;6.468;2024-02-14T04:25:04;2.08;;;1.20;;
27305;SDS011;14792;50.886;6.468;2024-02-14T04:28:05;2.58;;;1.40;;
27305;SDS011;14792;50.886;6.468;2024-02-14T04:31:07;2.50;;;1.35;;
27305;SDS011;14792;50.886;6.468;2024-02-14T04:34:09;3.62;;;1.20;;
27305;SDS011;14792;50.886;6.468;2024-02-14T04:37:10;3.25;;;1.47;;
27305;SDS011;14792;50.886;6.468;2024-02-14T04:40:12;3.65;;;1.20;;
27305;SDS011;14792;50.886;6.468;2024-02-14T04:43:13;1.60;;;0.98;;
27305;SDS011;14792;50.886;6.468;2024-02-14T04:46:15;3.10;;;1.20;;
27305;SDS011;14792;50.886;6.468;2024-02-14T04:49:16;2.35;;;1.22;;
27305;SDS011;14792;50.886;6.468;2024-02-14T04:52:18;5.72;;;1.42;;
27305;SDS011;14792;50.886;6.468;2024-02-14T04:55:20;2.47;;;1.30;;
27305;SDS011;14792;50.886;6.468;2024-02-14T04:58:21;3.83;;;1.20;;
27305;SDS011;14792;50.886;6.468;2024-02-14T05:01:23;4.12;;;1.80;;
27305;SDS011;14792;50.886;6.468;2024-02-14T05:04:24;5.40;;;1.62;;
27305;SDS011;14792;50.886;6.468;2024-02-14T05:07:26;2.98;;;1.37;;
27305;SDS011;14792;50.886;6.468;2024-02-14T05:10:28;3.37;;;2.00;;
27305;SDS011;14792;50.886;6.468;2024-02-14T05:13:30;4.72;;;1.50;;
27305;SDS011;14792;50.886;6.468;2024-02-14T05:16:31;5.17;;;1.85;;
27305;SDS011;14792;50.886;6.468;2024-02-14T05:19:32;5.03;;;1.70;;
27305;SDS011;14792;50.886;6.468;2024-02-14T05:22:35;5.62;;;1.50;;
27305;SDS011;14792;50.886;6.468;2024-02-14T05:25:41;2.77;;;1.25;;
27305;SDS011;14792;50.886;6.468;2024-02-14T05:28:42;3.20;;;1.42;;
27305;SDS011;14792;50.886;6.468;2024-02-14T05:31:44;4.55;;;1.30;;
27305;SDS011;14792;50.886;6.468;2024-02-14T05:34:46;2.00;;;1.52;;
27305;SDS011;14792;50.886;6.468;2024-02-14T05:37:47;5.67;;;1.77;;
27305;SDS011;14792;50.886;6.468;2024-02-14T05:40:49;3.60;;;1.80;;
27305;SDS011;14792;50.886;6.468;2024-02-14T05:43:50;3.25;;;1.72;;
27305;SDS011;14792;50.886;6.468;2024-02-14T05:46:52;3.85;;;1.90;;
27305;SDS011;14792;50.886;6.468;2024-02-14T05:49:53;2.67;;;1.65;;
27305;SDS011;14792;50.886;6.468;2024-02-14T05:52:55;3.72;;;1.87;;
27305;SDS011;14792;50.886;6.468;2024-02-14T05:55:57;3.90;;;1.65;;
27305;SDS011;14792;50.886;6.468;2024-02-14T05:58:58;2.33;;;1.30;;
27305;SDS011;14792;50.886;6.468;2024-02-14T06:02:00;4.12;;;1.77;;
27305;SDS011;14792;50.886;6.468;2024-02-14T06:05:01;4.08;;;1.40;;
27305;SDS011;14792;50.886;6.468;2024-02-14T06:08:03;3.55;;;1.20;;
27305;SDS011;14792;50.886;6.468;2024-02-14T06:11:04;2.92;;;1.40;;
27305;SDS011;14792;50.886;6.468;2024-02-14T06:14:06;5.40;;;1.32;;
27305;SDS011;14792;50.886;6.468;2024-02-14T06:17:08;4.45;;;1.40;;
27305;SDS011;14792;50.886;6.468;2024-02-14T06:20:09;8.20;;;1.77;;
27305;SDS011;14792;50.886;6.468;2024-02-14T06:23:11;4.30;;;1.47;;
27305;SDS011;14792;50.886;6.468;2024-02-14T06:26:12;2.92;;;1.27;;
27305;SDS011;14792;50.886;6.468;2024-02-14T06:29:14;3.12;;;1.10;;
27305;SDS011;14792;50.886;6.468;2024-02-14T06:32:16;5.70;;;1.60;;
27305;SDS011;14792;50.886;6.468;2024-02-14T06:35:17;3.27;;;1.45;;
27305;SDS011;14792;50.886;6.468;2024-02-14T06:38:19;4.50;;;1.82;;
27305;SDS011;14792;50.886;6.468;2024-02-14T06:41:20;4.45;;;1.50;;
27305;SDS011;14792;50.886;6.468;2024-02-14T06:44:25;3.22;;;1.60;;
27305;SDS011;14792;50.886;6.468;2024-02-14T06:47:24;2.35;;;1.40;;
27305;SDS011;14792;50.886;6.468;2024-02-14T06:50:25;5.72;;;1.30;;
27305;SDS011;14792;50.886;6.468;2024-02-14T06:53:27;2.45;;;1.50;;
27305;SDS011;14792;50.886;6.468;2024-02-14T06:56:31;2.90;;;1.30;;
27305;SDS011;14792;50.886;6.468;2024-02-14T06:59:33;5.22;;;1.55;;
27305;SDS011;14792;50.886;6.468;2024-02-14T07:02:34;4.80;;;1.70;;
27305;SDS011;14792;50.886;6.468;2024-02-14T07:05:36;4.83;;;1.77;;
27305;SDS011;14792;50.886;6.468;2024-02-14T07:08:40;3.45;;;1.20;;
27305;SDS011;14792;50.886;6.468;2024-02-14T07:11:39;4.35;;;1.27;;
27305;SDS011;14792;50.886;6.468;2024-02-14T07:14:41;4.42;;;1.57;;
27305;SDS011;14792;50.886;6.468;2024-02-14T07:17:42;6.83;;;1.57;;
27305;SDS011;14792;50.886;6.468;2024-02-14T07:20:44;4.35;;;1.40;;
27305;SDS011;14792;50.886;6.468;2024-02-14T07:23:45;5.72;;;2.42;;
27305;SDS011;14792;50.886;6.468;2024-02-14T07:26:47;3.02;;;1.35;;
27305;SDS011;14792;50.886;6.468;2024-02-14T07:29:48;3.33;;;2.05;;
27305;SDS011;14792;50.886;6.468;2024-02-14T07:32:50;5.55;;;1.65;;
27305;SDS011;14792;50.886;6.468;2024-02-14T07:35:52;4.80;;;1.70;;
27305;SDS011;14792;50.886;6.468;2024-02-14T07:38:53;4.35;;;1.60;;
27305;SDS011;14792;50.886;6.468;2024-02-14T07:41:55;2.75;;;1.17;;
27305;SDS011;14792;50.886;6.468;2024-02-14T07:44:56;2.37;;;1.42;;
27305;SDS011;14792;50.886;6.468;2024-02-14T07:47:58;5.42;;;1.50;;
27305;SDS011;14792;50.886;6.468;2024-02-14T07:51:00;6.00;;;1.55;;
27305;SDS011;14792;50.886;6.468;2024-02-14T07:54:02;4.33;;;1.40;;
27305;SDS011;14792;50.886;6.468;2024-02-14T07:57:03;3.77;;;1.80;;
27305;SDS011;14792;50.886;6.468;2024-02-14T08:00:05;7.45;;;2.47;;
27305;SDS011;14792;50.886;6.468;2024-02-14T08:03:06;1.98;;;1.20;;
27305;SDS011;14792;50.886;6.468;2024-02-14T08:06:08;4.50;;;1.22;;
27305;SDS011;14792;50.886;6.468;2024-02-14T08:09:09;4.35;;;1.32;;
27305;SDS011;14792;50.886;6.468;2024-02-14T08:12:11;3.87;;;1.07;;
27305;SDS011;14792;50.886;6.468;2024-02-14T08:15:12;2.50;;;0.70;;
27305;SDS011;14792;50.886;6.468;2024-02-14T08:18:14;4.45;;;1.20;;
27305;SDS011;14792;50.886;6.468;2024-02-14T08:21:16;2.60;;;1.10;;
27305;SDS011;14792;50.886;6.468;2024-02-14T08:24:17;3.62;;;1.12;;
27305;SDS011;14792;50.886;6.468;2024-02-14T08:27:19;5.37;;;1.00;;
27305;SDS011;14792;50.886;6.468;2024-02-14T08:30:21;4.33;;;1.22;;
27305;SDS011;14792;50.886;6.468;2024-02-14T08:33:22;4.92;;;1.35;;
27305;SDS011;14792;50.886;6.468;2024-02-14T08:36:24;6.65;;;1.37;;
27305;SDS011;14792;50.886;6.468;2024-02-14T08:39:25;4.62;;;1.10;;
27305;SDS011;14792;50.886;6.468;2024-02-14T08:42:27;4.50;;;1.20;;
27305;SDS011;14792;50.886;6.468;2024-02-14T08:45:28;4.42;;;1.25;;
27305;SDS011;14792;50.886;6.468;2024-02-14T08:48:30;4.05;;;1.52;;
27305;SDS011;14792;50.886;6.468;2024-02-14T08:51:32;3.37;;;1.10;;
27305;SDS011;14792;50.886;6.468;2024-02-14T08:54:33;7.85;;;1.27;;
27305;SDS011;14792;50.886;6.468;2024-02-14T08:57:35;5.30;;;1.60;;
27305;SDS011;14792;50.886;6.468;2024-02-14T09:00:37;3.87;;;0.98;;
27305;SDS011;14792;50.886;6.468;2024-02-14T09:03:38;6.78;;;1.05;;
27305;SDS011;14792;50.886;6.468;2024-02-14T09:06:40;5.25;;;1.17;;
27305;SDS011;14792;50.886;6.468;2024-02-14T09:13:38;4.22;;;1.15;;
27305;SDS011;14792;50.886;6.468;2024-02-14T09:16:40;12.55;;;1.80;;
27305;SDS011;14792;50.886;6.468;2024-02-14T09:19:41;5.58;;;1.30;;
27305;SDS011;14792;50.886;6.468;2024-02-14T09:22:43;5.28;;;1.40;;
27305;SDS011;14792;50.886;6.468;2024-02-14T09:25:44;7.20;;;2.40;;
27305;SDS011;14792;50.886;6.468;2024-02-14T09:28:46;9.10;;;1.40;;
27305;SDS011;14792;50.886;6.468;2024-02-14T09:31:47;5.65;;;1.20;;
27305;SDS011;14792;50.886;6.468;2024-02-14T09:34:49;5.53;;;0.80;;
27305;SDS011;14792;50.886;6.468;2024-02-14T09:37:51;4.75;;;1.10;;
27305;SDS011;14792;50.886;6.468;2024-02-14T09:41:02;6.70;;;1.27;;
27305;SDS011;14792;50.886;6.468;2024-02-14T09:44:06;7.45;;;0.98;;
27305;SDS011;14792;50.886;6.468;2024-02-14T09:47:08;4.00;;;1.20;;
27305;SDS011;14792;50.886;6.468;2024-02-14T09:50:09;8.05;;;3.12;;
27305;SDS011;14792;50.886;6.468;2024-02-14T09:53:11;5.65;;;1.95;;
27305;SDS011;14792;50.886;6.468;2024-02-14T09:56:12;9.05;;;2.00;;
27305;SDS011;14792;50.886;6.468;2024-02-14T09:59:14;6.53;;;1.05;;
27305;SDS011;14792;50.886;6.468;2024-02-14T10:02:15;7.75;;;2.00;;
27305;SDS011;14792;50.886;6.468;2024-02-14T10:05:17;10.40;;;2.27;;
27305;SDS011;14792;50.886;6.468;2024-02-14T10:08:19;3.90;;;1.40;;
27305;SDS011;14792;50.886;6.468;2024-02-14T10:11:20;6.67;;;1.35;;
27305;SDS011;14792;50.886;6.468;2024-02-14T10:14:22;6.83;;;1.42;;
27305;SDS011;14792;50.886;6.468;2024-02-14T10:17:23;7.25;;;1.52;;
27305;SDS011;14792;50.886;6.468;2024-02-14T10:20:25;4.10;;;1.00;;
27305;SDS011;14792;50.886;6.468;2024-02-14T10:23:27;7.20;;;1.05;;
27305;SDS011;14792;50.886;6.468;2024-02-14T10:26:28;7.15;;;1.20;;
27305;SDS011;14792;50.886;6.468;2024-02-14T10:29:30;8.55;;;2.05;;
27305;SDS011;14792;50.886;6.468;2024-02-14T10:32:31;7.10;;;1.92;;
27305;SDS011;14792;50.886;6.468;2024-02-14T10:35:33;8.28;;;1.00;;
27305;SDS011;14792;50.886;6.468;2024-02-14T10:38:34;5.30;;;2.00;;
27305;SDS011;14792;50.886;6.468;2024-02-14T10:41:36;4.90;;;1.10;;
27305;SDS011;14792;50.886;6.468;2024-02-14T10:44:38;4.95;;;1.30;;
27305;SDS011;14792;50.886;6.468;2024-02-14T10:47:40;2.33;;;1.07;;
27305;SDS011;14792;50.886;6.468;2024-02-14T10:50:41;3.58;;;1.12;;
27305;SDS011;14792;50.886;6.468;2024-02-14T10:53:43;4.67;;;1.00;;
27305;SDS011;14792;50.886;6.468;2024-02-14T10:56:45;5.53;;;0.85;;
27305;SDS011;14792;50.886;6.468;2024-02-14T10:59:46;4.42;;;1.00;;
27305;SDS011;14792;50.886;6.468;2024-02-14T11:02:47;2.67;;;0.90;;
27305;SDS011;14792;50.886;6.468;2024-02-14T11:05:49;3.22;;;1.30;;
27305;SDS011;14792;50.886;6.468;2024-02-14T11:09:03;4.72;;;0.85;;
27305;SDS011;14792;50.886;6.468;2024-02-14T11:12:07;4.55;;;2.12;;
27305;SDS011;14792;50.886;6.468;2024-02-14T11:15:12;3.55;;;1.35;;
27305;SDS011;14792;50.886;6.468;2024-02-14T11:18:24;4.62;;;1.62;;
27305;SDS011;14792;50.886;6.468;2024-02-14T11:21:20;4.10;;;0.90;;
27305;SDS011;14792;50.886;6.468;2024-02-14T11:24:26;4.15;;;1.05;;
27305;SDS011;14792;50.886;6.468;2024-02-14T11:27:23;3.45;;;0.93;;
27305;SDS011;14792;50.886;6.468;2024-02-14T11:30:34;2.10;;;0.53;;
27305;SDS011;14792;50.886;6.468;2024-02-14T11:33:32;2.87;;;0.68;;
27305;SDS011;14792;50.886;6.468;2024-02-14T11:36:34;0.95;;;0.80;;
27305;SDS011;14792;50.886;6.468;2024-02-14T11:39:35;4.12;;;0.60;;
27305;SDS011;14792;50.886;6.468;2024-02-14T11:42:37;1.05;;;0.47;;
27305;SDS011;14792;50.886;6.468;2024-02-14T11:45:39;0.62;;;0.40;;
27305;SDS011;14792;50.886;6.468;2024-02-14T11:48:41;2.20;;;0.70;;
27305;SDS011;14792;50.886;6.468;2024-02-14T11:51:42;0.50;;;0.50;;
27305;SDS011;14792;50.886;6.468;2024-02-14T11:54:46;3.22;;;1.00;;
27305;SDS011;14792;50.886;6.468;2024-02-14T11:57:47;0.75;;;0.42;;
27305;SDS011;14792;50.886;6.468;2024-02-14T12:00:49;0.55;;;0.33;;
27305;SDS011;14792;50.886;6.468;2024-02-14T12:03:51;3.17;;;0.45;;
27305;SDS011;14792;50.886;6.468;2024-02-14T12:06:53;2.83;;;0.45;;
27305;SDS011;14792;50.886;6.468;2024-02-14T12:09:55;2.77;;;0.50;;
27305;SDS011;14792;50.886;6.468;2024-02-14T12:12:55;0.50;;;0.30;;
27305;SDS011;14792;50.886;6.468;2024-02-14T12:15:57;2.27;;;0.35;;
27305;SDS011;14792;50.886;6.468;2024-02-14T12:19:08;1.75;;;0.40;;
27305;SDS011;14792;50.886;6.468;2024-02-14T12:22:10;0.60;;;0.28;;
27305;SDS011;14792;50.886;6.468;2024-02-14T12:25:11;0.75;;;0.55;;
27305;SDS011;14792;50.886;6.468;2024-02-14T12:28:15;1.12;;;0.60;;
27305;SDS011;14792;50.886;6.468;2024-02-14T12:31:23;1.32;;;0.60;;
27305;SDS011;14792;50.886;6.468;2024-02-14T12:34:24;0.90;;;0.40;;
27305;SDS011;14792;50.886;6.468;2024-02-14T12:37:26;1.47;;;0.40;;
27305;SDS011;14792;50.886;6.468;2024-02-14T12:40:27;0.35;;;0.30;;
27305;SDS011;14792;50.886;6.468;2024-02-14T12:43:29;3.08;;;0.80;;
27305;SDS011;14792;50.886;6.468;2024-02-14T12:46:31;0.30;;;0.28;;
27305;SDS011;14792;50.886;6.468;2024-02-14T12:49:32;0.98;;;0.47;;
27305;SDS011;14792;50.886;6.468;2024-02-14T12:52:34;2.00;;;0.70;;
27305;SDS011;14792;50.886;6.468;2024-02-14T12:55:35;0.62;;;0.30;;
27305;SDS011;14792;50.886;6.468;2024-02-14T12:58:37;1.00;;;0.40;;
27305;SDS011;14792;50.886;6.468;2024-02-14T13:01:39;0.82;;;0.33;;
27305;SDS011;14792;50.886;6.468;2024-02-14T13:04:40;0.93;;;0.50;;
27305;SDS011;14792;50.886;6.468;2024-02-14T13:07:42;0.40;;;0.25;;
27305;SDS011;14792;50.886;6.468;2024-02-14T13:10:43;0.20;;;0.20;;
27305;SDS011;14792;50.886;6.468;2024-02-14T13:13:45;3.15;;;0.40;;
27305;SDS011;14792;50.886;6.468;2024-02-14T13:16:46;0.98;;;0.28;;
27305;SDS011;14792;50.886;6.468;2024-02-14T13:19:48;0.30;;;0.30;;
27305;SDS011;14792;50.886;6.468;2024-02-14T13:22:50;0.80;;;0.20;;
27305;SDS011;14792;50.886;6.468;2024-02-14T13:25:51;0.68;;;0.28;;
27305;SDS011;14792;50.886;6.468;2024-02-14T13:28:53;0.10;;;0.10;;
27305;SDS011;14792;50.886;6.468;2024-02-14T13:31:54;1.40;;;0.20;;
27305;SDS011;14792;50.886;6.468;2024-02-14T13:34:56;0.95;;;0.40;;
27305;SDS011;14792;50.886;6.468;2024-02-14T13:37:58;1.05;;;0.40;;
27305;SDS011;14792;50.886;6.468;2024-02-14T13:40:59;0.90;;;0.30;;
27305;SDS011;14792;50.886;6.468;2024-02-14T13:44:01;1.40;;;0.62;;
27305;SDS011;14792;50.886;6.468;2024-02-14T13:47:02;0.25;;;0.10;;
27305;SDS011;14792;50.886;6.468;2024-02-14T13:50:05;1.02;;;0.30;;
27305;SDS011;14792;50.886;6.468;2024-02-14T13:53:09;0.80;;;0.65;;
27305;SDS011;14792;50.886;6.468;2024-02-14T13:56:07;0.42;;;0.30;;
27305;SDS011;14792;50.886;6.468;2024-02-14T13:59:09;1.47;;;0.35;;
27305;SDS011;14792;50.886;6.468;2024-02-14T14:02:10;1.72;;;0.40;;
27305;SDS011;14792;50.886;6.468;2024-02-14T14:05:12;1.00;;;0.37;;
27305;SDS011;14792;50.886;6.468;2024-02-14T14:08:13;1.40;;;0.57;;
27305;SDS011;14792;50.886;6.468;2024-02-14T14:11:15;0.98;;;0.40;;
27305;SDS011;14792;50.886;6.468;2024-02-14T14:14:17;0.50;;;0.40;;
27305;SDS011;14792;50.886;6.468;2024-02-14T14:17:18;0.40;;;0.40;;
27305;SDS011;14792;50.886;6.468;2024-02-14T14:20:20;1.25;;;0.40;;
27305;SDS011;14792;50.886;6.468;2024-02-14T14:23:21;1.37;;;0.40;;
27305;SDS011;14792;50.886;6.468;2024-02-14T14:26:23;0.42;;;0.25;;
27305;SDS011;14792;50.886;6.468;2024-02-14T14:29:25;0.47;;;0.33;;
27305;SDS011;14792;50.886;6.468;2024-02-14T14:32:26;0.68;;;0.40;;
27305;SDS011;14792;50.886;6.468;2024-02-14T14:35:29;0.60;;;0.50;;
27305;SDS011;14792;50.886;6.468;2024-02-14T14:38:29;1.80;;;0.60;;
27305;SDS011;14792;50.886;6.468;2024-02-14T14:41:31;1.80;;;0.35;;
27305;SDS011;14792;50.886;6.468;2024-02-14T14:44:33;0.68;;;0.30;;
27305;SDS011;14792;50.886;6.468;2024-02-14T14:47:34;0.50;;;0.50;;
27305;SDS011;14792;50.886;6.468;2024-02-14T14:50:36;0.70;;;0.40;;
27305;SDS011;14792;50.886;6.468;2024-02-14T14:53:37;1.50;;;0.60;;
27305;SDS011;14792;50.886;6.468;2024-02-14T14:56:39;0.98;;;0.40;;
27305;SDS011;14792;50.886;6.468;2024-02-14T14:59:41;2.45;;;0.40;;
27305;SDS011;14792;50.886;6.468;2024-02-14T15:02:45;0.80;;;0.30;;
27305;SDS011;14792;50.886;6.468;2024-02-14T15:05:44;1.77;;;0.50;;
27305;SDS011;14792;50.886;6.468;2024-02-14T15:08:45;1.57;;;0.70;;
27305;SDS011;14792;50.886;6.468;2024-02-14T15:11:47;1.95;;;1.10;;
27305;SDS011;14792;50.886;6.468;2024-02-14T15:14:48;1.05;;;0.70;;
27305;SDS011;14792;50.886;6.468;2024-02-14T15:17:50;3.05;;;0.70;;
27305;SDS011;14792;50.886;6.468;2024-02-14T15:20:52;0.70;;;0.70;;
27305;SDS011;14792;50.886;6.468;2024-02-14T15:23:53;0.78;;;0.50;;
27305;SDS011;14792;50.886;6.468;2024-02-14T15:26:55;1.67;;;0.70;;
27305;SDS011;14792;50.886;6.468;2024-02-14T15:29:56;1.90;;;0.65;;
27305;SDS011;14792;50.886;6.468;2024-02-14T15:33:16;2.00;;;0.95;;
27305;SDS011;14792;50.886;6.468;2024-02-14T15:36:26;1.52;;;1.17;;
27305;SDS011;14792;50.886;6.468;2024-02-14T15:39:27;1.67;;;1.17;;
27305;SDS011;14792;50.886;6.468;2024-02-14T15:42:29;3.10;;;2.40;;
27305;SDS011;14792;50.886;6.468;2024-02-14T15:45:31;1.50;;;1.37;;
27305;SDS011;14792;50.886;6.468;2024-02-14T15:48:32;2.12;;;0.88;;
27305;SDS011;14792;50.886;6.468;2024-02-14T15:51:34;4.78;;;2.10;;
27305;SDS011;14792;50.886;6.468;2024-02-14T15:54:36;1.52;;;1.10;;
27305;SDS011;14792;50.886;6.468;2024-02-14T15:57:38;0.75;;;0.70;;
27305;SDS011;14792;50.886;6.468;2024-02-14T16:00:39;0.50;;;0.50;;
27305;SDS011;14792;50.886;6.468;2024-02-14T16:03:41;1.57;;;0.90;;
27305;SDS011;14792;50.886;6.468;2024-02-14T16:06:42;2.22;;;1.75;;
27305;SDS011;14792;50.886;6.468;2024-02-14T16:09:44;2.20;;;1.72;;
27305;SDS011;14792;50.886;6.468;2024-02-14T16:12:46;1.55;;;1.07;;
27305;SDS011;14792;50.886;6.468;2024-02-14T16:15:47;1.27;;;0.90;;
27305;SDS011;14792;50.886;6.468;2024-02-14T16:18:49;1.22;;;0.98;;
27305;SDS011;14792;50.886;6.468;2024-02-14T16:21:50;0.80;;;0.80;;
27305;SDS011;14792;50.886;6.468;2024-02-14T16:24:52;1.15;;;0.70;;
27305;SDS011;14792;50.886;6.468;2024-02-14T16:27:53;0.50;;;0.50;;
27305;SDS011;14792;50.886;6.468;2024-02-14T16:30:55;0.55;;;0.50;;
27305;SDS011;14792;50.886;6.468;2024-02-14T16:33:57;1.02;;;0.88;;
27305;SDS011;14792;50.886;6.468;2024-02-14T16:36:58;0.50;;;0.50;;
27305;SDS011;14792;50.886;6.468;2024-02-14T16:40:00;1.90;;;1.20;;
27305;SDS011;14792;50.886;6.468;2024-02-14T16:43:01;1.00;;;0.88;;
27305;SDS011;14792;50.886;6.468;2024-02-14T16:46:03;1.00;;;0.80;;
27305;SDS011;14792;50.886;6.468;2024-02-14T16:49:05;1.35;;;0.90;;
27305;SDS011;14792;50.886;6.468;2024-02-14T16:52:06;0.93;;;0.90;;
27305;SDS011;14792;50.886;6.468;2024-02-14T16:55:08;3.98;;;0.90;;
27305;SDS011;14792;50.886;6.468;2024-02-14T16:58:09;1.00;;;0.80;;
27305;SDS011;14792;50.886;6.468;2024-02-14T17:01:11;1.00;;;0.90;;
27305;SDS011;14792;50.886;6.468;2024-02-14T17:04:12;2.10;;;0.82;;
27305;SDS011;14792;50.886;6.468;2024-02-14T17:07:14;1.50;;;0.78;;
27305;SDS011;14792;50.886;6.468;2024-02-14T17:10:16;1.12;;;0.80;;
27305;SDS011;14792;50.886;6.468;2024-02-14T17:13:17;0.90;;;0.80;;
27305;SDS011;14792;50.886;6.468;2024-02-14T17:16:19;2.27;;;2.00;;
27305;SDS011;14792;50.886;6.468;2024-02-14T17:19:20;2.72;;;1.87;;
27305;SDS011;14792;50.886;6.468;2024-02-14T17:22:22;7.95;;;3.50;;
27305;SDS011;14792;50.886;6.468;2024-02-14T17:25:24;2.75;;;1.95;;
27305;SDS011;14792;50.886;6.468;2024-02-14T17:28:25;1.95;;;1.27;;
27305;SDS011;14792;50.886;6.468;2024-02-14T17:31:27;1.07;;;0.98;;
27305;SDS011;14792;50.886;6.468;2024-02-14T17:34:28;1.47;;;1.37;;
27305;SDS011;14792;50.886;6.468;2024-02-14T17:37:30;1.95;;;1.57;;
27305;SDS011;14792;50.886;6.468;2024-02-14T17:40:32;2.25;;;1.20;;
27305;SDS011;14792;50.886;6.468;2024-02-14T17:43:33;4.30;;;1.32;;
27305;SDS011;14792;50.886;6.468;2024-02-14T17:46:35;2.58;;;1.35;;
27305;SDS011;14792;50.886;6.468;2024-02-14T17:49:36;3.00;;;1.87;;
27305;SDS011;14792;50.886;6.468;2024-02-14T17:52:38;2.02;;;1.20;;
27305;SDS011;14792;50.886;6.468;2024-02-14T17:55:39;1.77;;;0.93;;
27305;SDS011;14792;50.886;6.468;2024-02-14T17:58:41;2.12;;;1.00;;
27305;SDS011;14792;50.886;6.468;2024-02-14T18:01:43;0.98;;;0.70;;
27305;SDS011;14792;50.886;6.468;2024-02-14T18:04:44;1.20;;;0.80;;
27305;SDS011;14792;50.886;6.468;2024-02-14T18:07:46;1.17;;;0.72;;
27305;SDS011;14792;50.886;6.468;2024-02-14T18:10:47;2.25;;;1.12;;
27305;SDS011;14792;50.886;6.468;2024-02-14T18:13:49;2.83;;;1.07;;
27305;SDS011;14792;50.886;6.468;2024-02-14T18:16:51;3.87;;;1.40;;
27305;SDS011;14792;50.886;6.468;2024-02-14T18:19:52;1.30;;;1.00;;